x

Southern Lake Huron (45149) Weather Station

5:00pm - Mon 29th Jun 2015 All times are CDT. -5 hours from GMT.

  • Peak Period 3s
  • Wind
    9mph, 11mph gusts
  • Sea Temp 65°f
  • Air Temp 68°f
  • Sea Pressure 1010.3mb
  • Southern Lake Huron
  • Southern Lake Huron

More Historic Weather Station data

Upgrade to MSW Pro to gain access to the past 30 days of data for over 8000 Wavebouys and Weather Stations around the globe.

Join Pro

Comparision Forecast

View Surf forecast
   
Mon 06/29 5:00pm  -  3s 9 11 mph 1010.3mb 65f 68f
4:00pm 0.3ft 2s 2 4 mph 1010.5mb 67f 68f
3:00pm 0.3ft 2s 2
mph
1011mb 66f 68f
2:00pm 0.3ft 4s 2
mph
1011.6mb 64f 65f
1:00pm 0.3ft 2s 4
mph
1011.8mb 62f 64f
12:00pm 0.3ft 2s 4
mph
1012.2mb 61f 62f
11:00am 0.3ft 2s 4
mph
1012.2mb 60f 61f
10:00am 0.3ft 2s 7 9 mph 1012.1mb 59f 60f
9:00am 0.3ft 2s 7 9 mph 1012.2mb 59f 59f
8:00am 0.7ft 2s 7 9 mph 1012mb 59f 59f
7:00am 0.7ft 2s 7 9 mph 1011.7mb 59f 59f
6:00am 0.7ft 2s 7 9 mph 1011.4mb 59f 59f
5:00am 0.7ft 14s 7 9 mph 1011.1mb 58f 58f
4:00am 0.7ft 15s 11 13 mph 1010.9mb 58f 58f
3:00am 0.3ft 3s 9 13 mph 1011.1mb 58f 59f
2:00am 0.7ft 3s 7 9 mph 1011.3mb 58f 59f
1:00am 0.7ft 4s 4 7 mph 1012mb 59f 58f
12:00am 0.7ft 3s 7 9 mph 1011.6mb 59f 58f
Sun 06/28 11:00pm 1ft 4s 2 4 mph 1011.5mb 59f 59f
10:00pm 1ft 3s 2 4 mph 1011.6mb 59f 59f
9:00pm 1ft 4s 2 4 mph 1011.5mb 58f 59f
8:00pm 1.3ft 4s 4
mph
1011.2mb 59f 59f
7:00pm 1.6ft 4s 4
mph
1011.2mb 59f 60f
6:00pm 2ft 4s 9 11 mph 1011.1mb 59f 60f
5:00pm 2.5ft 4s 11 13 mph 1011mb 59f 60f
4:00pm 2.5ft 4s 13 18 mph 1010.8mb 59f 59f
3:00pm 2.5ft 4s 16 18 mph 1010.9mb 59f 58f
2:00pm 2.5ft 4s 18 20 mph 1010.7mb 59f 58f
1:00pm 3ft 5s 18 22 mph 1010.7mb 59f 56f
12:00pm  -   -  20
mph
- - -
11:00am 3.5ft 5s 18 22 mph 1010.4mb 58f 57f
10:00am 4ft 5s 20 25 mph 1009.9mb 58f 57f
9:00am 4.5ft 5s 20 22 mph 1009.9mb 58f 56f
8:00am 4ft 5s 22 27 mph 1009.4mb 58f 56f
7:00am 4ft 5s 20 27 mph 1008.9mb 58f 56f
6:00am  -   -  20
mph
1008.3mb 59f 57f
5:00am 3.5ft 5s 18 20 mph 1008mb 59f 58f
4:00am 3.5ft 5s 18 22 mph 1007.6mb 58f 58f
3:00am 3.5ft 5s 16 20 mph 1007.4mb 59f 58f
2:00am 3ft 5s 20 22 mph 1007.6mb 59f 59f
1:00am 3.5ft 5s 20 22 mph 1008.3mb 59f 58f
12:00am 4.5ft 5s 18 22 mph 1008.3mb 59f 59f
Sat 06/27 11:00pm 4.5ft 5s 20 27 mph 1008.7mb 58f 59f
10:00pm 4ft 5s 22 27 mph 1008.9mb 58f 60f
9:00pm 5ft 5s 22 29 mph 1008.7mb 58f 60f
8:00pm 5.5ft 5s 27 34 mph 1008.7mb 58f 60f
7:00pm 4.5ft 5s 27 34 mph 1008.9mb 58f 61f
6:00pm 4.5ft 5s 27 34 mph 1009mb 59f 61f
5:00pm  -   -  27
mph
- - 60f
4:00pm 3ft 4s 25 31 mph 1010.7mb 60f 60f
3:00pm 2.5ft 4s 25 31 mph 1010.6mb 60f 60f
2:00pm 3ft 4s 20 25 mph 1012mb 60f 60f
1:00pm 2.5ft 4s 18 20 mph 1012.1mb 60f 61f
12:00pm 2.5ft 4s 13 18 mph 1012.3mb 60f 62f
11:00am 2.5ft 4s 16 18 mph 1012.6mb 60f 63f
10:00am 2.5ft 4s 13 16 mph 1013.1mb 60f 62f
9:00am 2.5ft 4s 16 20 mph 1013.5mb 61f 63f
8:00am 2.5ft 4s 16 20 mph 1014mb 61f 63f
7:00am 2.5ft 4s 16 18 mph 1014.6mb 61f 63f
6:00am 2.5ft 4s 16 20 mph 1014.6mb 61f 64f
5:00am 2.5ft 3s 18 22 mph 1014.2mb 61f 64f
4:00am 1.6ft 3s 16 20 mph 1014.7mb 61f 64f
3:00am 1.6ft 4s 13 18 mph 1015.7mb 61f 63f
2:00am 1.3ft 4s 13 16 mph 1016.5mb 61f 63f
1:00am 1.3ft 4s 9 11 mph 1017mb 61f 63f
12:00am 1.6ft 4s 9
mph
1017.4mb 60f 63f
Fri 06/26 11:00pm 1.3ft 4s 7 9 mph 1017.8mb 60f 63f
10:00pm 1.6ft 4s 7 9 mph 1017.7mb 60f 64f
9:00pm 2ft 4s 9
mph
1017.6mb 60f 61f
8:00pm 2ft 4s 11
mph
1017.7mb 60f 61f
7:00pm 2ft 4s 13 16 mph 1017.6mb 60f 61f
6:00pm 1.6ft 4s 13 16 mph 1017.5mb 61f 61f
5:00pm 1.3ft 3s 13
mph
1017.8mb 61f 61f
4:00pm 1.3ft 3s 11 13 mph 1018.2mb 61f 62f
3:00pm 1.3ft 3s 11 13 mph 1018.2mb 61f 62f
2:00pm 1ft 3s 11 13 mph 1018.4mb 61f 62f
1:00pm 1ft 3s 11 13 mph 1018.6mb 61f 62f
12:00pm 1ft 3s 9 11 mph 1018.9mb 61f 62f
11:00am 0.7ft 2s 9 11 mph 1019.1mb 60f 61f
10:00am 0.7ft 2s 4
mph
1019.2mb 60f 61f
9:00am 1ft 3s 4
mph
1019.6mb 60f 61f
8:00am 1ft 2s 2
mph
1019.5mb 59f 62f
7:00am 0.7ft 2s 7
mph
1018.5mb 59f 61f
6:00am 0.7ft 3s 7
mph
1018.1mb 59f 61f
5:00am 1ft 3s 7
mph
1017.4mb 59f 60f
4:00am 0.7ft 3s 7 9 mph 1016.7mb 59f 60f
3:00am 0.7ft 3s 7
mph
1016.2mb 59f 60f
2:00am 0.7ft 3s 7 9 mph 1016.6mb 59f 59f
1:00am 1ft 3s 2
mph
1017.1mb 59f 62f
12:00am 0.7ft 3s 4 7 mph 1016.4mb 60f 62f